createdAt,value
2022-09-02T00:01:00.991Z,73.45
2022-09-02T00:04:05.577Z,73.75
2022-09-02T00:07:07.440Z,73.91
2022-09-02T00:10:09.564Z,74.10
2022-09-02T00:13:14.851Z,74.55
2022-09-02T00:16:17.503Z,74.38
2022-09-02T00:19:24.590Z,74.63
2022-09-02T00:22:26.628Z,74.88
2022-09-02T00:25:28.355Z,74.87
2022-09-02T00:28:31.012Z,74.90
2022-09-02T00:31:33.960Z,75.14
2022-09-02T00:34:35.715Z,75.23
2022-09-02T00:37:38.772Z,75.37
2022-09-02T00:40:45.719Z,75.34
2022-09-02T00:43:59.978Z,75.68
2022-09-02T00:47:02.026Z,75.58
2022-09-02T00:50:08.462Z,75.64
2022-09-02T00:53:11.758Z,75.73
2022-09-02T00:56:20.212Z,75.39
2022-09-02T01:00:09.040Z,75.10
2022-09-02T01:03:13.960Z,74.94
2022-09-02T01:06:21.977Z,75.29
2022-09-02T01:09:23.820Z,75.75
2022-09-02T01:12:26.581Z,75.78
2022-09-02T01:15:31.294Z,75.83
2022-09-02T01:18:33.312Z,76.08
2022-09-02T01:21:35.125Z,76.27
2022-09-02T01:24:36.822Z,76.37
2022-09-02T01:27:39.021Z,76.29
2022-09-02T01:30:44.759Z,76.47
2022-09-02T01:33:46.643Z,76.47
2022-09-02T01:36:49.238Z,76.42
2022-09-02T01:39:52.517Z,76.65
2022-09-02T01:43:01.209Z,76.68
2022-09-02T01:46:03.190Z,76.44
2022-09-02T01:49:05.102Z,76.21
2022-09-02T01:52:07.497Z,76.35
2022-09-02T01:55:09.583Z,76.85
2022-09-02T01:58:11.617Z,77.03
2022-09-02T02:01:13.657Z,77.10
2022-09-02T02:04:16.826Z,77.07
2022-09-02T02:07:20.052Z,77.20
2022-09-02T02:10:22.048Z,77.30
2022-09-02T02:13:23.972Z,77.48
2022-09-02T02:16:25.949Z,77.61
2022-09-02T02:19:28.185Z,77.82
2022-09-02T02:22:29.856Z,78.02
2022-09-02T02:25:31.691Z,77.89
2022-09-02T02:28:33.520Z,77.87
2022-09-02T02:31:35.588Z,77.84
2022-09-02T02:34:37.713Z,78.03
2022-09-02T02:37:39.693Z,77.98
2022-09-02T02:40:41.928Z,78.36
2022-09-02T02:43:43.971Z,78.37
2022-09-02T02:46:45.765Z,78.41
2022-09-02T02:49:47.708Z,78.50
2022-09-02T02:52:50.447Z,78.58
2022-09-02T02:55:52.212Z,78.55
2022-09-02T02:58:53.921Z,78.90
2022-09-02T03:01:56.047Z,79.03
2022-09-02T03:04:58.123Z,79.06
2022-09-02T03:07:59.994Z,78.82
2022-09-02T03:11:01.973Z,78.83
2022-09-02T03:14:05.230Z,78.95
2022-09-02T03:17:07.197Z,79.40
2022-09-02T03:20:09.428Z,79.55
2022-09-02T03:23:13.271Z,79.60
2022-09-02T03:26:19.967Z,79.69
2022-09-02T03:29:22.186Z,79.72
2022-09-02T03:32:24.125Z,80.32
2022-09-02T03:35:30.977Z,80.46
2022-09-02T03:38:32.952Z,80.80
2022-09-02T03:41:35.411Z,81.18
2022-09-02T03:44:37.182Z,81.16
2022-09-02T03:47:44.125Z,81.45
2022-09-02T03:50:47.455Z,81.29
2022-09-02T03:53:49.761Z,81.24
2022-09-02T03:56:51.997Z,81.14
2022-09-02T03:59:54.425Z,80.80
2022-09-02T04:02:56.369Z,80.80
2022-09-02T04:05:58.589Z,80.65
2022-09-02T04:09:01.127Z,80.67
2022-09-02T04:12:05.246Z,80.84
2022-09-02T04:15:08.820Z,81.03
2022-09-02T04:18:11.964Z,81.05
2022-09-02T04:21:14.254Z,81.16
2022-09-02T04:24:16.092Z,81.22
2022-09-02T04:27:17.937Z,81.23
2022-09-02T04:30:20.470Z,81.10
2022-09-02T04:33:22.333Z,81.16
2022-09-02T04:36:25.192Z,81.41
2022-09-02T04:39:30.867Z,81.70
2022-09-02T04:42:34.253Z,81.84
2022-09-02T04:45:38.981Z,81.96
2022-09-02T04:48:44.878Z,81.96
2022-09-02T04:51:47.354Z,82.21
2022-09-02T04:54:49.147Z,82.04
2022-09-02T04:57:51.155Z,82.13
2022-09-02T05:00:52.874Z,82.34
2022-09-02T05:03:55.130Z,82.27
2022-09-02T05:06:58.304Z,82.53
2022-09-02T05:10:00.397Z,82.62
2022-09-02T05:13:02.190Z,82.84
2022-09-02T05:16:04.005Z,82.79
2022-09-02T05:19:09.706Z,83.81
2022-09-02T05:22:11.691Z,85.16
2022-09-02T05:25:13.483Z,85.64
2022-09-02T05:28:16.662Z,85.05
2022-09-02T05:31:21.024Z,84.78
2022-09-02T05:34:23.078Z,84.09
2022-09-02T05:37:25.436Z,84.15
2022-09-02T05:40:28.880Z,83.80
2022-09-02T05:43:30.896Z,83.35
2022-09-02T05:46:32.887Z,82.72
2022-09-02T05:49:34.823Z,82.25
2022-09-02T05:52:36.715Z,81.26
2022-09-02T05:55:38.597Z,80.50
2022-09-02T05:58:40.422Z,78.88
2022-09-02T06:01:42.847Z,76.74
2022-09-02T06:04:48.475Z,76.91
2022-09-02T06:07:50.249Z,75.39
2022-09-02T06:10:51.939Z,75.17
2022-09-02T06:13:55.013Z,77.03
2022-09-02T06:16:57.738Z,77.78
2022-09-02T06:19:59.598Z,78.06
2022-09-02T06:23:01.555Z,77.88
2022-09-02T06:26:03.290Z,76.41
2022-09-02T06:29:05.990Z,76.50
2022-09-02T06:32:07.812Z,75.54
2022-09-02T06:35:10.879Z,75.25
2022-09-02T06:38:14.420Z,74.88
2022-09-02T06:41:23.467Z,73.61
2022-09-02T06:44:25.161Z,74.06
2022-09-02T06:47:27.030Z,73.66
2022-09-02T06:50:28.797Z,73.77
2022-09-02T06:53:30.687Z,72.50
2022-09-02T06:56:33.541Z,72.53
2022-09-02T06:59:36.584Z,71.82
2022-09-02T07:02:38.658Z,70.73
2022-09-02T07:05:40.683Z,71.96
2022-09-02T07:08:43.448Z,71.74
2022-09-02T07:11:48.755Z,71.62
2022-09-02T07:14:50.990Z,69.93
2022-09-02T07:17:54.203Z,68.48
2022-09-02T07:20:56.356Z,70.09
2022-09-02T07:23:59.665Z,70.09
2022-09-02T07:27:01.554Z,70.28
2022-09-02T07:30:05.193Z,69.72
2022-09-02T07:33:07.168Z,69.67
2022-09-02T07:36:12.601Z,68.80
2022-09-02T07:39:16.046Z,68.37
2022-09-02T07:42:19.656Z,67.26
2022-09-02T07:45:21.968Z,65.98
2022-09-02T07:48:24.490Z,64.10
2022-09-02T07:51:31.044Z,62.62
2022-09-02T07:54:35.025Z,63.70
2022-09-02T07:57:37.165Z,65.12
2022-09-02T08:00:39.068Z,62.67
2022-09-02T08:03:44.365Z,62.46
2022-09-02T08:06:46.569Z,62.50
2022-09-02T08:09:48.487Z,61.85
2022-09-02T08:12:51.415Z,61.00
2022-09-02T08:15:54.454Z,61.84
2022-09-02T08:18:56.220Z,60.86
2022-09-02T08:22:08.688Z,59.88
2022-09-02T08:25:11.254Z,59.05
2022-09-02T08:28:14.813Z,56.73
2022-09-02T08:31:16.746Z,56.92
2022-09-02T08:34:18.687Z,56.81
2022-09-02T08:37:20.354Z,56.41
2022-09-02T08:40:25.669Z,55.76
2022-09-02T08:43:40.570Z,56.06
2022-09-02T08:46:42.839Z,55.92
2022-09-02T08:49:48.688Z,56.78
2022-09-02T08:53:16.306Z,54.94
2022-09-02T08:56:19.205Z,54.20
2022-09-02T08:59:23.212Z,53.73
2022-09-02T09:02:47.278Z,55.34
2022-09-02T09:06:01.738Z,54.85
2022-09-02T09:09:31.899Z,54.67
2022-09-02T09:12:33.640Z,53.33
2022-09-02T09:16:04.343Z,54.08
2022-09-02T09:19:18.076Z,53.66
2022-09-02T09:22:22.440Z,53.36
2022-09-02T09:25:29.783Z,51.15
2022-09-02T09:28:31.784Z,49.72
2022-09-02T09:31:35.750Z,49.37
2022-09-02T09:34:53.086Z,49.73
2022-09-02T09:37:55.972Z,50.58
2022-09-02T09:41:14.299Z,48.93
2022-09-02T09:44:34.051Z,47.16
2022-09-02T09:47:35.706Z,47.49
2022-09-02T09:50:38.088Z,48.68
2022-09-02T09:53:40.720Z,49.78
2022-09-02T09:56:42.560Z,47.59
2022-09-02T09:59:47.749Z,47.15
2022-09-02T10:02:52.369Z,48.78
2022-09-02T10:05:57.076Z,48.57
2022-09-02T10:09:04.961Z,45.91
2022-09-02T10:12:12.492Z,46.28
2022-09-02T10:15:14.330Z,47.71
2022-09-02T10:18:37.967Z,47.21
2022-09-02T10:22:07.734Z,48.38
2022-09-02T10:25:25.754Z,47.58
2022-09-02T10:28:31.077Z,46.73
2022-09-02T10:32:06.988Z,45.13
2022-09-02T10:35:27.613Z,45.89
2022-09-02T10:38:37.438Z,46.11
2022-09-02T10:45:25.106Z,45.10
2022-09-02T10:48:54.623Z,44.75
2022-09-02T10:52:33.171Z,45.18
2022-09-02T10:55:59.652Z,45.09
2022-09-02T10:59:10.754Z,44.98
2022-09-02T11:02:23.804Z,46.54
2022-09-02T11:05:35.242Z,46.03
2022-09-02T11:08:50.947Z,45.79
2022-09-02T11:12:04.517Z,45.86
2022-09-02T11:15:18.002Z,44.73
2022-09-02T11:18:26.729Z,43.54
2022-09-02T11:21:37.376Z,44.02
2022-09-02T11:24:50.000Z,44.50
2022-09-02T11:28:26.185Z,44.24
2022-09-02T11:31:50.169Z,43.25
2022-09-02T11:34:55.282Z,43.48
2022-09-02T11:38:03.645Z,43.39
2022-09-02T11:41:36.654Z,43.20
2022-09-02T11:45:02.632Z,43.18
2022-09-02T11:48:10.129Z,43.36
2022-09-02T11:51:39.664Z,44.55
2022-09-02T11:54:43.992Z,44.28
2022-09-02T11:57:54.945Z,44.15
2022-09-02T12:00:58.446Z,43.58
2022-09-02T12:04:48.415Z,43.02
2022-09-02T12:07:29.738Z,43.35
2022-09-02T12:10:47.820Z,43.48
2022-09-02T12:17:09.160Z,42.14
2022-09-02T12:20:31.344Z,43.20
2022-09-02T12:23:52.682Z,43.08
2022-09-02T12:26:54.437Z,41.80
2022-09-02T12:29:57.124Z,41.27
2022-09-02T12:33:13.541Z,42.55
2022-09-02T12:36:37.459Z,42.95
2022-09-02T12:39:39.090Z,43.27
2022-09-02T12:42:41.949Z,43.21
2022-09-02T12:45:48.545Z,43.38
2022-09-02T12:49:01.233Z,44.67
2022-09-02T12:52:06.870Z,44.61
2022-09-02T12:55:29.630Z,43.16
2022-09-02T12:58:46.391Z,43.47
2022-09-02T13:05:29.718Z,43.89
2022-09-02T13:08:46.675Z,43.95
2022-09-02T13:12:09.798Z,44.14
2022-09-02T13:15:23.820Z,44.13
2022-09-02T13:18:44.472Z,44.15
2022-09-02T13:21:48.393Z,43.97
2022-09-02T13:25:18.976Z,44.37
2022-09-02T13:28:45.329Z,44.42
2022-09-02T13:32:01.190Z,43.97
2022-09-02T13:35:06.297Z,43.95
2022-09-02T13:41:32.742Z,43.81
2022-09-02T13:44:35.028Z,43.62
2022-09-02T13:47:37.234Z,43.42
2022-09-02T13:50:43.694Z,43.01
2022-09-02T13:57:12.503Z,42.49
2022-09-02T14:00:17.407Z,43.25
2022-09-02T14:03:22.438Z,43.10
2022-09-02T14:06:36.636Z,43.19
2022-09-02T14:09:39.494Z,43.66
2022-09-02T14:12:42.259Z,43.89
2022-09-02T14:15:44.310Z,44.03
2022-09-02T14:19:14.565Z,44.04
2022-09-02T14:22:26.199Z,44.11
2022-09-02T14:25:32.541Z,44.25
2022-09-02T14:28:35.570Z,44.25
2022-09-02T14:31:38.304Z,44.08
2022-09-02T14:34:42.776Z,43.98
2022-09-02T14:37:52.217Z,44.31
2022-09-02T14:41:05.738Z,44.23
2022-09-02T14:44:13.631Z,44.18
2022-09-02T14:47:17.025Z,44.61
2022-09-02T14:50:26.078Z,44.31
2022-09-02T14:53:27.853Z,44.62
2022-09-02T14:56:45.372Z,44.69
2022-09-02T14:59:48.722Z,44.68
2022-09-02T15:02:56.506Z,44.73
2022-09-02T15:05:58.273Z,44.64
2022-09-02T15:09:00.095Z,44.67
2022-09-02T15:12:02.908Z,44.85
2022-09-02T15:15:05.310Z,44.93
2022-09-02T15:18:09.236Z,45.08
2022-09-02T15:21:11.416Z,45.03
2022-09-02T15:24:13.301Z,45.05
2022-09-02T15:27:15.767Z,44.92
2022-09-02T15:30:20.777Z,45.03
2022-09-02T15:33:22.743Z,44.96
2022-09-02T15:36:26.303Z,44.92
2022-09-02T15:39:28.441Z,45.05
2022-09-02T15:42:30.416Z,45.24
2022-09-02T15:45:32.168Z,45.29
2022-09-02T15:48:33.929Z,45.45
2022-09-02T15:51:36.408Z,45.42
2022-09-02T15:54:38.204Z,45.47
2022-09-02T15:57:41.282Z,45.58
2022-09-02T16:00:43.833Z,45.63
2022-09-02T16:03:45.980Z,45.69
2022-09-02T16:06:49.231Z,45.94
2022-09-02T16:09:50.953Z,45.70
2022-09-02T16:12:52.707Z,45.88
2022-09-02T16:16:01.084Z,45.95
2022-09-02T16:19:05.298Z,45.88
2022-09-02T16:22:07.010Z,46.02
2022-09-02T16:25:09.284Z,46.04
2022-09-02T16:28:12.588Z,46.20
2022-09-02T16:31:20.149Z,46.17
2022-09-02T16:34:22.509Z,46.15
2022-09-02T16:37:24.257Z,46.18
2022-09-02T16:40:26.145Z,46.30
2022-09-02T16:43:28.024Z,46.40
2022-09-02T16:46:30.340Z,46.47
2022-09-02T16:49:32.168Z,46.59
2022-09-02T16:52:35.253Z,46.59
2022-09-02T16:55:41.766Z,46.68
2022-09-02T16:58:43.766Z,46.80
2022-09-02T17:01:45.489Z,46.85
2022-09-02T17:04:47.421Z,47.05
2022-09-02T17:07:49.205Z,47.12
2022-09-02T17:10:51.058Z,47.19
2022-09-02T17:14:01.994Z,47.30
2022-09-02T17:17:03.839Z,47.51
2022-09-02T17:20:06.360Z,47.64
2022-09-02T17:23:08.768Z,47.81
2022-09-02T17:26:10.879Z,47.96
2022-09-02T17:29:47.042Z,48.03
2022-09-02T17:32:40.739Z,48.21
2022-09-02T17:35:42.497Z,48.29
2022-09-02T17:38:45.137Z,48.38
2022-09-02T17:41:57.584Z,48.48
2022-09-02T17:44:59.485Z,48.60
2022-09-02T17:48:19.261Z,48.67
2022-09-02T17:51:24.321Z,48.91
2022-09-02T17:54:30.715Z,49.06
2022-09-02T17:58:09.775Z,49.01
2022-09-02T18:01:19.333Z,49.37
2022-09-02T18:04:43.133Z,49.26
2022-09-02T18:07:50.952Z,49.38
2022-09-02T18:10:58.125Z,49.56
2022-09-02T18:14:03.034Z,49.69
2022-09-02T18:17:27.792Z,49.74
2022-09-02T18:20:43.540Z,50.04
2022-09-02T18:24:14.581Z,50.03
2022-09-02T18:27:30.494Z,50.20
2022-09-02T18:30:49.120Z,50.32
2022-09-02T18:34:05.934Z,50.61
2022-09-02T18:37:45.065Z,50.76
2022-09-02T18:41:13.671Z,50.91
2022-09-02T18:44:43.334Z,51.09
2022-09-02T18:47:49.875Z,51.36
2022-09-02T18:50:57.606Z,51.43
2022-09-02T18:54:04.886Z,51.45
2022-09-02T18:57:07.821Z,51.49
2022-09-02T19:00:12.720Z,51.65
2022-09-02T19:03:14.503Z,51.65
2022-09-02T19:06:19.878Z,51.94
2022-09-02T19:09:24.585Z,51.85
2022-09-02T19:12:31.860Z,51.99
2022-09-02T19:15:33.559Z,52.13
2022-09-02T19:18:38.635Z,52.28
2022-09-02T19:21:48.673Z,52.44
2022-09-02T19:24:58.099Z,52.48
2022-09-02T19:28:02.650Z,52.60
2022-09-02T19:31:04.713Z,52.69
2022-09-02T19:34:08.306Z,52.66
2022-09-02T19:37:12.298Z,52.73
2022-09-02T19:40:18.990Z,52.87
2022-09-02T19:43:21.644Z,52.81
2022-09-02T19:46:57.875Z,52.88
2022-09-02T19:49:45.290Z,52.79
2022-09-02T19:52:49.484Z,52.89
2022-09-02T19:55:51.234Z,52.82
2022-09-02T19:58:52.924Z,52.89
2022-09-02T20:01:54.744Z,52.82
2022-09-02T20:04:56.538Z,52.67
2022-09-02T20:07:58.546Z,52.83
2022-09-02T20:11:02.942Z,52.97
2022-09-02T20:14:04.720Z,52.91
2022-09-02T20:17:11.279Z,52.85
2022-09-02T20:20:17.283Z,52.95
2022-09-02T20:23:20.886Z,53.06
2022-09-02T20:26:31.184Z,53.09
2022-09-02T20:30:00.462Z,53.20
2022-09-02T20:33:22.540Z,53.32
2022-09-02T20:36:29.814Z,53.62
2022-09-02T20:39:51.200Z,53.58
2022-09-02T20:43:03.510Z,53.64
2022-09-02T20:46:11.318Z,53.87
2022-09-02T20:49:35.937Z,54.00
2022-09-02T20:53:03.638Z,54.07
2022-09-02T20:56:12.079Z,54.01
2022-09-02T20:59:31.284Z,54.32
2022-09-02T21:02:40.645Z,54.41
2022-09-02T21:05:48.848Z,54.44
2022-09-02T21:08:59.790Z,54.61
2022-09-02T21:12:10.442Z,54.59
2022-09-02T21:15:26.310Z,54.93
2022-09-02T21:18:58.782Z,55.09
2022-09-02T21:22:10.534Z,55.27
2022-09-02T21:25:38.183Z,55.42
2022-09-02T21:28:48.721Z,55.75
2022-09-02T21:32:00.967Z,56.03
2022-09-02T21:35:12.128Z,56.05
2022-09-02T21:38:24.896Z,56.29
2022-09-02T21:41:43.034Z,56.34
2022-09-02T21:45:20.225Z,56.63
2022-09-02T21:48:51.824Z,56.54
2022-09-02T21:52:05.071Z,56.82
2022-09-02T21:55:27.013Z,56.77
2022-09-02T21:58:40.844Z,57.05
2022-09-02T22:01:55.881Z,57.07
2022-09-02T22:05:03.058Z,57.24
2022-09-02T22:08:31.722Z,57.24
2022-09-02T22:11:47.842Z,57.41
2022-09-02T22:15:01.933Z,57.54
2022-09-02T22:18:17.673Z,57.53
2022-09-02T22:21:48.607Z,57.80
2022-09-02T22:24:52.149Z,57.85
2022-09-02T22:28:05.478Z,57.85
2022-09-02T22:31:11.209Z,58.07
2022-09-02T22:34:16.340Z,58.10
2022-09-02T22:37:22.407Z,58.28
2022-09-02T22:40:26.219Z,58.26
2022-09-02T22:43:36.082Z,58.44
2022-09-02T22:47:14.102Z,58.49
2022-09-02T22:50:39.452Z,58.67
2022-09-02T22:53:41.233Z,59.01
2022-09-02T22:56:53.977Z,59.06
2022-09-02T23:00:10.758Z,59.25
2022-09-02T23:03:39.283Z,59.54
2022-09-02T23:06:41.044Z,59.73
2022-09-02T23:09:43.412Z,59.91
2022-09-02T23:13:02.601Z,60.21
2022-09-02T23:16:35.380Z,60.44
2022-09-02T23:20:31.406Z,60.38
2022-09-02T23:23:39.461Z,60.31
2022-09-02T23:27:10.010Z,60.37
2022-09-02T23:30:12.200Z,60.62
2022-09-02T23:33:58.092Z,60.97
2022-09-02T23:37:36.514Z,61.12
2022-09-02T23:40:44.272Z,61.29
2022-09-02T23:43:46.184Z,61.45
2022-09-02T23:47:13.004Z,61.67
2022-09-02T23:50:34.568Z,61.80
2022-09-02T23:53:55.319Z,61.78
2022-09-02T23:57:44.584Z,61.91
